KIJX/IJX METAR and TAF weather

Enter ICAO airport designator
Station Type Date Time Source
KIJX METAR 2021/09/25 12:55 UTC NOAA

KIJX 251255Z AUTO 00000KT M1/4SM FG OVC002 11/11 A3011 RMK AO2 P0001 T01070107


Station Type Date Time Source
KIJX Decoded METAR 2021/09/25 12:55 UTC NOAA

Jacksonville, Jacksonville Municipal Airport, IL, United States (KIJX) 39-46-27N 090-14-19W
Sep 25, 2021 - 08:55 AM EDT / 2021.09.25 1255 UTC
Wind: Calm:0
Visibility: less than 1/4 mile(s):1
Sky conditions: overcast
Weather: fog
Precipitation last hour: 0.01 inches
Temperature: 51.3 F (10.7 C)
Dew Point: 51.3 F (10.7 C)
Relative Humidity: 100%
Pressure (altimeter): 30.11 in. Hg (1019 hPa)
ob: KIJX 251255Z AUTO 00000KT M1/4SM FG OVC002 11/11 A3011 RMK AO2 P0001 T01070107
cycle: 13

Station Type Date Time Source
KIJX TAF UTC NOAA

Error!

Example: see airport list